CFE weather

Clermont-Ferrand Auvergne Airport
Clermont-Ferrand/Auvergne, Auvergne-Rhône-Alpes, France

Public forecast

Using degrees Celsius for public forecast. Weather courtesy of forecast.io.

Current aviation weather report (METAR) for Clermont-Ferrand Auvergne Airport

Retrieved 2020/08/04 11:30 UTC (13 minutes ago):

LFLC 041130Z AUTO 01008KT 320V060 9999 SCT052 SCT064 20/08 Q1018 NOSIG

Aviation forecast (TAF) for Clermont-Ferrand Auvergne Airport

Retrieved 2020/08/04 09:21 UTC (2 hours ago):

TAF LFLC 040800Z 0409/0509 36010KT 9999 BKN035 BECMG 0410/0412 NSC BECMG 0419/0421 VRB02KT